Time;durP1;ratioP1;P1;durP2;ratioP2;P2;SDS_P1;SDS_P2;PMS_P1;PMS_P2;Temp;Humidity;BMP_temperature;BMP_pressure;BME280_temperature;BME280_humidity;BME280_pressure;Samples;Min_cycle;Max_cycle;Signal;HPM_P1;HPM_P2
2021/10/14 00:00:15;;;;;;;11.43;2.53;;;;;;;;;;4555071;30;20057;-80
2021/10/14 00:02:47;;;;;;;12.43;2.63;;;;;;;;;;4544561;30;20055;-81
2021/10/14 00:05:17;;;;;;;12.15;2.65;;;;;;;;;;4589413;29;20047;-81
2021/10/14 00:08:07;;;;;;;9.77;2.30;;;;;;;;;;4612018;29;20909;-80
2021/10/14 00:11:23;;;;;;;11.48;2.60;;;;;;;;;;4633359;29;20058;-80
2021/10/14 00:13:53;;;;;;;13.73;2.72;;;;;;;;;;4620552;29;20882;-80
2021/10/14 00:16:46;;;;;;;10.73;2.55;;;;;;;;;;4629714;29;20050;-80
2021/10/14 00:25:21;;;;;;;14.60;2.63;;;;;;;;;;4584636;30;20062;-79
2021/10/14 00:31:20;;;;;;;13.48;2.47;;;;;;;;;;4588576;29;21297;-80
2021/10/14 00:33:54;;;;;;;11.65;2.28;;;;;;;;;;4698349;23;20060;-79
2021/10/14 00:36:26;;;;;;;13.50;3.08;;;;;;;;;;4710710;29;20045;-79
2021/10/14 00:39:32;;;;;;;10.88;2.47;;;;;;;;;;4690389;29;20049;-80
2021/10/14 00:44:54;;;;;;;11.70;2.50;;;;;;;;;;4687565;29;20045;-82
2021/10/14 00:47:33;;;;;;;14.80;2.42;;;;;;;;;;4683104;29;20105;-80
2021/10/14 00:50:01;;;;;;;11.80;2.55;;;;;;;;;;4692370;29;21698;-81
2021/10/14 00:52:33;;;;;;;11.50;2.90;;;;;;;;;;4695783;29;20041;-80
2021/10/14 00:55:21;;;;;;;14.25;2.25;;;;;;;;;;4699646;29;20128;-80
2021/10/14 01:00:42;;;;;;;11.77;2.40;;;;;;;;;;4695885;29;21276;-80
2021/10/14 01:03:39;;;;;;;13.18;2.20;;;;;;;;;;4726328;29;20044;-81
2021/10/14 01:06:29;;;;;;;15.77;3.03;;;;;;;;;;4719086;29;20041;-82
2021/10/14 01:09:17;;;;;;;10.60;2.05;;;;;;;;;;4729241;29;20043;-83
2021/10/14 01:11:44;;;;;;;14.25;2.78;;;;;;;;;;4714529;29;20131;-82
2021/10/14 01:14:34;;;;;;;14.63;2.70;;;;;;;;;;4698719;29;20104;-83
2021/10/14 01:17:12;;;;;;;14.38;2.92;;;;;;;;;;4725322;29;21161;-80
2021/10/14 01:19:54;;;;;;;11.93;2.70;;;;;;;;;;4723000;29;20041;-79
2021/10/14 01:22:34;;;;;;;12.07;2.78;;;;;;;;;;4700731;29;21270;-80
2021/10/14 01:25:29;;;;;;;12.00;2.88;;;;;;;;;;4683011;29;20045;-80
2021/10/14 01:28:26;;;;;;;;;;;;;;;;;;;;;
2021/10/14 01:34:12;;;;;;;11.45;2.80;;;;;;;;;;4748706;23;20080;-82
2021/10/14 01:42:31;;;;;;;;;;;;;;;;;;;;;
2021/10/14 01:45:06;;;;;;;9.18;2.10;;;;;;;;;;4642470;29;20046;-80
2021/10/14 01:48:13;;;;;;;11.82;2.85;;;;;;;;;;4646370;29;20060;-79
2021/10/14 01:53:47;;;;;;;16.77;2.90;;;;;;;;;;4608991;29;20808;-82
2021/10/14 01:59:25;;;;;;;12.93;2.70;;;;;;;;;;4592180;29;20051;-79
2021/10/14 02:02:22;;;;;;;11.57;2.42;;;;;;;;;;4576011;29;20039;-80
2021/10/14 02:04:59;;;;;;;10.15;2.40;;;;;;;;;;4551615;30;20056;-81
2021/10/14 02:10:34;;;;;;;10.98;2.60;;;;;;;;;;4536341;30;20118;-80
2021/10/14 02:13:06;;;;;;;10.68;2.45;;;;;;;;;;4548346;30;20076;-81
2021/10/14 02:15:33;;;;;;;13.10;2.88;;;;;;;;;;4520382;30;20053;-80
2021/10/14 02:18:09;;;;;;;11.35;1.92;;;;;;;;;;4493520;30;20833;-80
2021/10/14 02:20:43;;;;;;;10.23;2.17;;;;;;;;;;4501661;30;20057;-82
2021/10/14 02:23:32;;;;;;;11.60;2.40;;;;;;;;;;4523002;30;20057;-82
2021/10/14 02:26:14;;;;;;;11.50;2.45;;;;;;;;;;4491461;30;20046;-82
2021/10/14 02:31:34;;;;;;;8.73;2.22;;;;;;;;;;4552197;30;20837;-80
2021/10/14 02:34:15;;;;;;;;;;;;;;;;;;;;;
2021/10/14 02:36:45;;;;;;;11.48;2.38;;;;;;;;;;4548900;29;20048;-80
2021/10/14 02:39:23;;;;;;;10.45;2.70;;;;;;;;;;4560365;30;20082;-81
2021/10/14 02:41:49;;;;;;;12.05;3.03;;;;;;;;;;4569551;29;20218;-80
2021/10/14 02:44:18;;;;;;;;;;;;;;;;;;4572119;30;20043;-81
2021/10/14 02:47:08;;;;;;;11.73;2.20;;;;;;;;;;4586638;29;20719;-80
2021/10/14 02:49:41;;;;;;;13.63;2.58;;;;;;;;;;4655950;29;20819;-81
2021/10/14 02:52:08;;;;;;;10.82;2.50;;;;;;;;;;4647496;29;20060;-81
2021/10/14 02:54:35;;;;;;;13.73;3.28;;;;;;;;;;4652974;29;20046;-80
2021/10/14 02:57:12;;;;;;;10.90;2.22;;;;;;;;;;4665181;29;20057;-80
2021/10/14 02:59:41;;;;;;;13.20;2.40;;;;;;;;;;4676059;29;21789;-81
2021/10/14 03:02:44;;;;;;;15.38;2.63;;;;;;;;;;4678103;29;20185;-82
2021/10/14 03:05:13;;;;;;;10.13;2.35;;;;;;;;;;4674753;29;20128;-81
2021/10/14 03:07:47;;;;;;;10.57;2.33;;;;;;;;;;4683891;29;20068;-80
2021/10/14 03:13:42;;;;;;;;;;;;;;;;;;;;;
2021/10/14 03:16:19;;;;;;;;;;;;;;;;;;;;;
2021/10/14 03:18:48;;;;;;;14.73;2.92;;;;;;;;;;4626669;29;21380;-79
2021/10/14 03:21:44;;;;;;;9.43;2.38;;;;;;;;;;4615113;29;20082;-80
2021/10/14 03:24:33;;;;;;;14.45;2.90;;;;;;;;;;4604863;29;20078;-81
2021/10/14 03:26:59;;;;;;;10.00;2.28;;;;;;;;;;4606999;29;20039;-80
2021/10/14 03:29:26;;;;;;;12.40;2.90;;;;;;;;;;4587780;29;20512;-81
2021/10/14 03:32:09;;;;;;;11.93;2.15;;;;;;;;;;4618522;29;20059;-80
2021/10/14 03:38:08;;;;;;;11.85;2.63;;;;;;;;;;4584563;30;20059;-81
2021/10/14 03:40:51;;;;;;;12.00;2.72;;;;;;;;;;4587452;29;20088;-80
2021/10/14 03:46:06;;;;;;;10.48;2.38;;;;;;;;;;4593537;30;20040;-79
2021/10/14 03:48:42;;;;;;;11.63;2.17;;;;;;;;;;4574501;30;20059;-81
2021/10/14 03:51:12;;;;;;;12.30;2.83;;;;;;;;;;4614087;29;20051;-80
2021/10/14 03:53:43;;;;;;;10.45;2.72;;;;;;;;;;4604398;29;21108;-80
2021/10/14 03:56:28;;;;;;;;;;;;;;;;;;;;;
2021/10/14 03:58:55;;;;;;;13.60;2.72;;;;;;;;;;4602086;29;21390;-81
2021/10/14 04:01:22;;;;;;;11.35;2.70;;;;;;;;;;4597723;29;20080;-79
2021/10/14 04:03:51;;;;;;;10.70;2.38;;;;;;;;;;4603835;29;20091;-80
2021/10/14 04:06:36;;;;;;;12.43;2.33;;;;;;;;;;4601470;29;20047;-81
2021/10/14 04:09:06;;;;;;;10.52;2.08;;;;;;;;;;4610458;29;20109;-80
2021/10/14 04:14:32;;;;;;;13.77;2.53;;;;;;;;;;4605117;29;20049;-81
2021/10/14 04:17:12;;;;;;;8.10;2.03;;;;;;;;;;4674581;29;20038;-80
2021/10/14 04:19:42;;;;;;;10.70;2.30;;;;;;;;;;4666062;29;20049;-80
2021/10/14 04:22:19;;;;;;;9.32;2.20;;;;;;;;;;4673157;29;21701;-81
2021/10/14 04:27:39;;;;;;;12.20;2.50;;;;;;;;;;4647527;29;20046;-82
2021/10/14 04:33:58;;;;;;;;;;;;;;;;;;;;;
2021/10/14 04:36:47;;;;;;;8.55;2.10;;;;;;;;;;4624727;29;20390;-79
2021/10/14 04:39:57;;;;;;;;;;;;;;;;;;;;;
2021/10/14 04:42:33;;;;;;;8.45;2.10;;;;;;;;;;4582518;30;20051;-79
2021/10/14 04:45:00;;;;;;;12.15;2.40;;;;;;;;;;4547434;30;20600;-80
2021/10/14 04:47:51;;;;;;;9.43;2.72;;;;;;;;;;4563430;30;20051;-82
2021/10/14 04:50:44;;;;;;;11.70;2.80;;;;;;;;;;4584837;29;22913;-81
2021/10/14 04:53:15;;;;;;;12.40;2.83;;;;;;;;;;4579795;30;20055;-82
2021/10/14 05:02:58;;;;;;;13.40;3.63;;;;;;;;;;4592831;29;20370;-82
2021/10/14 05:05:49;;;;;;;13.75;2.92;;;;;;;;;;4571725;30;20974;-81
2021/10/14 05:08:23;;;;;;;12.15;2.20;;;;;;;;;;4579088;29;20048;-83
2021/10/14 05:14:15;;;;;;;9.82;2.30;;;;;;;;;;4554456;30;21445;-81
2021/10/14 05:20:24;;;;;;;14.18;2.38;;;;;;;;;;4528635;30;20048;-80
2021/10/14 05:33:11;;;;;;;11.10;2.60;;;;;;;;;;4548433;30;20048;-80
2021/10/14 05:35:53;;;;;;;7.97;2.20;;;;;;;;;;4405061;30;2901588;-81
2021/10/14 05:44:36;;;;;;;11.75;2.35;;;;;;;;;;4243551;30;5238732;-81
2021/10/14 05:47:28;;;;;;;16.00;3.05;;;;;;;;;;4478644;30;20082;-82
2021/10/14 05:50:11;;;;;;;11.35;2.47;;;;;;;;;;4431062;30;20055;-81
2021/10/14 05:55:54;;;;;;;8.23;2.50;;;;;;;;;;4420830;31;20054;-83
2021/10/14 06:01:09;;;;;;;11.25;2.72;;;;;;;;;;4405871;31;20056;-82
2021/10/14 06:04:11;;;;;;;11.13;2.63;;;;;;;;;;4436988;30;20053;-82
2021/10/14 06:06:59;;;;;;;12.32;2.53;;;;;;;;;;4429309;30;20049;-82
2021/10/14 06:13:16;;;;;;;11.40;2.97;;;;;;;;;;4529862;30;20182;-82
2021/10/14 06:41:35;;;;;;;;;;;;;;;;;;;;;
2021/10/14 06:47:00;;;;;;;10.35;3.10;;;;;;;;;;4530156;30;20060;-80
2021/10/14 06:49:27;;;;;;;11.55;3.22;;;;;;;;;;4575860;30;21737;-80
2021/10/14 06:51:55;;;;;;;;;;;;;;;;;;4600300;30;20184;-82
2021/10/14 06:54:25;;;;;;;13.00;3.30;;;;;;;;;;4582564;30;19962;-80
2021/10/14 06:57:08;;;;;;;;;;;;;;;;;;;;;
2021/10/14 07:05:53;;;;;;;17.40;4.45;;;;;;;;;;4618900;29;20756;-81
2021/10/14 07:08:21;;;;;;;12.32;3.03;;;;;;;;;;4640033;29;20034;-81
2021/10/14 07:10:54;;;;;;;9.30;3.38;;;;;;;;;;4642592;29;20038;-80
2021/10/14 07:13:28;;;;;;;15.98;5.10;;;;;;;;;;4664734;29;20047;-80
2021/10/14 07:15:58;;;;;;;13.65;3.25;;;;;;;;;;4688032;29;20105;-81
2021/10/14 07:18:32;;;;;;;13.43;3.95;;;;;;;;;;4671547;29;20123;-81
2021/10/14 07:21:23;;;;;;;12.10;3.95;;;;;;;;;;4671847;29;20083;-80
2021/10/14 07:24:01;;;;;;;16.35;3.38;;;;;;;;;;4664602;29;20053;-80
2021/10/14 07:26:38;;;;;;;15.65;4.35;;;;;;;;;;4652695;29;20046;-80
2021/10/14 07:29:10;;;;;;;18.13;4.40;;;;;;;;;;4676797;29;20045;-80
2021/10/14 07:31:43;;;;;;;19.77;4.25;;;;;;;;;;4678383;29;20037;-80
2021/10/14 07:40:36;;;;;;;11.32;2.67;;;;;;;;;;4553996;30;20658;-81
2021/10/14 07:43:16;;;;;;;13.60;2.88;;;;;;;;;;4533506;30;20050;-82
2021/10/14 07:46:01;;;;;;;13.20;2.60;;;;;;;;;;4549012;30;20045;-81
2021/10/14 07:48:54;;;;;;;12.13;2.88;;;;;;;;;;4565000;30;20048;-81
2021/10/14 07:51:28;;;;;;;11.85;3.15;;;;;;;;;;4572021;30;20056;-82
2021/10/14 07:53:58;;;;;;;12.45;3.17;;;;;;;;;;4576394;30;20063;-81
2021/10/14 07:59:29;;;;;;;12.95;4.53;;;;;;;;;;4562278;30;20243;-82
2021/10/14 08:02:35;;;;;;;;;;;;;;;;;;;;;
2021/10/14 08:08:09;;;;;;;12.80;4.70;;;;;;;;;;4549771;30;20058;-81
2021/10/14 08:10:38;;;;;;;;;;;;;;;;;;4556718;30;20240;-81
2021/10/14 08:13:14;;;;;;;16.02;4.90;;;;;;;;;;4562093;29;19932;-81
2021/10/14 08:16:02;;;;;;;15.25;4.70;;;;;;;;;;4651717;29;20053;-81
2021/10/14 08:21:46;;;;;;;12.68;4.97;;;;;;;;;;4641643;29;20053;-80
2021/10/14 08:24:16;;;;;;;17.98;6.22;;;;;;;;;;4654564;29;21530;-82
2021/10/14 08:27:01;;;;;;;16.23;5.93;;;;;;;;;;4606576;29;20046;-80
2021/10/14 08:29:45;;;;;;;;;;;;;;;;;;;;;
2021/10/14 08:32:42;;;;;;;;;;;;;;;;;;;;;
2021/10/14 08:35:13;;;;;;;14.68;3.38;;;;;;;;;;4627020;29;20054;-81
2021/10/14 08:37:41;;;;;;;16.27;3.33;;;;;;;;;;4610556;29;20781;-81
2021/10/14 08:40:20;;;;;;;12.50;2.80;;;;;;;;;;4601173;29;20139;-82
2021/10/14 08:43:17;;;;;;;10.98;3.00;;;;;;;;;;4614442;29;20075;-81
2021/10/14 08:45:49;;;;;;;12.30;2.38;;;;;;;;;;4604470;29;20155;-83
2021/10/14 08:48:22;;;;;;;14.32;2.75;;;;;;;;;;4607094;29;20039;-82
2021/10/14 08:53:48;;;;;;;12.25;2.50;;;;;;;;;;4578895;29;20044;-81
2021/10/14 08:56:18;;;;;;;12.05;2.70;;;;;;;;;;4587757;29;20052;-82
2021/10/14 09:02:08;;;;;;;11.60;2.58;;;;;;;;;;4590136;29;20098;-82
2021/10/14 09:05:14;;;;;;;10.20;2.40;;;;;;;;;;4575299;30;20290;-82
2021/10/14 09:07:58;;;;;;;12.38;2.42;;;;;;;;;;4573172;30;20886;-81
2021/10/14 09:10:25;;;;;;;;;;;;;;;;;;4575209;29;21635;-82
2021/10/14 09:12:51;;;;;;;12.38;2.53;;;;;;;;;;4562940;30;20089;-83
2021/10/14 09:15:41;;;;;;;13.93;2.78;;;;;;;;;;4559739;30;20106;-82
2021/10/14 09:18:11;;;;;;;12.00;2.20;;;;;;;;;;4561681;29;20692;-81
2021/10/14 09:20:42;;;;;;;13.30;2.53;;;;;;;;;;4569353;30;20716;-84
2021/10/14 09:23:17;;;;;;;14.88;2.38;;;;;;;;;;4576636;30;20106;-81
2021/10/14 09:25:47;;;;;;;14.32;3.20;;;;;;;;;;4580810;30;20052;-83
2021/10/14 09:28:49;;;;;;;11.38;2.40;;;;;;;;;;4563694;30;21007;-81
2021/10/14 09:31:18;;;;;;;14.23;2.72;;;;;;;;;;4528294;30;20167;-81
2021/10/14 09:33:59;;;;;;;13.35;2.58;;;;;;;;;;4528797;30;20052;-81
2021/10/14 09:36:34;;;;;;;10.43;2.15;;;;;;;;;;4543032;30;20056;-83
2021/10/14 09:39:10;;;;;;;10.10;2.03;;;;;;;;;;4575839;30;20044;-80
2021/10/14 09:42:00;;;;;;;;;;;;;;;;;;;;;
2021/10/14 09:45:03;;;;;;;;;;;;;;;;;;;;;
2021/10/14 09:48:08;;;;;;;;;;;;;;;;;;;;;
2021/10/14 09:50:57;;;;;;;11.43;2.30;;;;;;;;;;4593333;29;21371;-81
2021/10/14 09:56:24;;;;;;;11.93;3.30;;;;;;;;;;4607768;29;20822;-82
2021/10/14 09:59:21;;;;;;;11.13;2.67;;;;;;;;;;4622626;29;20035;-84
2021/10/14 10:05:20;;;;;;;10.95;2.38;;;;;;;;;;4620238;29;20149;-82
2021/10/14 10:23:56;;;;;;;16.27;5.30;;;;;;;;;;4534904;30;20406;-82
2021/10/14 10:26:40;;;;;;;15.75;5.60;;;;;;;;;;4546130;30;20056;-82
2021/10/14 10:29:20;;;;;;;15.38;4.85;;;;;;;;;;4559793;30;20053;-82
2021/10/14 10:38:07;;;;;;;14.45;3.75;;;;;;;;;;4704109;29;20114;-82
2021/10/14 10:41:05;;;;;;;14.05;3.20;;;;;;;;;;4665876;29;20054;-82
2021/10/14 10:44:21;;;;;;;;;;;;;;;;;;;;;
2021/10/14 10:47:21;;;;;;;14.02;3.70;;;;;;;;;;4632281;29;21712;-82
2021/10/14 10:59:25;;;;;;;13.52;4.35;;;;;;;;;;4577420;29;20152;-82
2021/10/14 11:01:59;;;;;;;13.40;4.47;;;;;;;;;;4576128;30;21550;-82
2021/10/14 11:04:36;;;;;;;18.58;6.00;;;;;;;;;;4569029;30;20044;-81
2021/10/14 11:07:29;;;;;;;15.32;5.65;;;;;;;;;;4566675;30;20040;-81
2021/10/14 11:10:00;;;;;;;12.85;4.63;;;;;;;;;;4553990;30;20052;-81
2021/10/14 11:12:32;;;;;;;15.88;3.28;;;;;;;;;;4572979;30;20165;-81
2021/10/14 11:15:25;;;;;;;11.82;2.80;;;;;;;;;;4561481;30;20047;-81
2021/10/14 11:18:30;;;;;;;10.20;2.92;;;;;;;;;;4563620;30;20121;-80
2021/10/14 11:21:05;;;;;;;9.57;2.88;;;;;;;;;;4562773;30;20164;-81
2021/10/14 11:26:51;;;;;;;12.30;3.00;;;;;;;;;;4588897;29;20548;-82
2021/10/14 11:29:21;;;;;;;11.43;2.10;;;;;;;;;;4598048;29;20729;-82
2021/10/14 11:34:48;;;;;;;11.15;2.95;;;;;;;;;;4643631;29;20058;-82
2021/10/14 11:37:21;;;;;;;9.88;2.40;;;;;;;;;;4648533;29;20070;-82
2021/10/14 11:43:35;;;;;;;;;;;;;;;;;;;;;
2021/10/14 11:46:19;;;;;;;;;;;;;;;;;;;;;
2021/10/14 11:49:06;;;;;;;7.93;2.25;;;;;;;;;;4587279;29;20152;-80
2021/10/14 11:51:42;;;;;;;10.05;2.30;;;;;;;;;;4578861;29;22381;-82
2021/10/14 11:54:38;;;;;;;11.82;2.53;;;;;;;;;;4578688;29;20058;-82
2021/10/14 11:57:13;;;;;;;9.90;2.40;;;;;;;;;;4532431;30;23208;-82
2021/10/14 11:59:50;;;;;;;7.93;2.00;;;;;;;;;;4545605;30;21288;-85
2021/10/14 12:02:37;;;;;;;9.63;2.00;;;;;;;;;;4543112;30;21570;-84
2021/10/14 12:05:08;;;;;;;10.02;2.10;;;;;;;;;;4549582;30;20041;-85
2021/10/14 12:07:35;;;;;;;11.20;2.40;;;;;;;;;;4589940;30;20072;-83
2021/10/14 12:16:31;;;;;;;10.02;2.55;;;;;;;;;;4644177;29;20052;-82
2021/10/14 12:22:30;;;;;;;9.68;2.20;;;;;;;;;;4655341;29;20366;-84
2021/10/14 12:28:44;;;;;;;9.52;2.13;;;;;;;;;;4630333;29;20122;-84
2021/10/14 12:37:35;;;;;;;;;;;;;;;;;;;;;
2021/10/14 12:40:26;;;;;;;8.48;2.42;;;;;;;;;;4671254;29;20049;-82
2021/10/14 12:43:06;;;;;;;7.32;1.90;;;;;;;;;;4689325;29;22361;-82
2021/10/14 12:55:29;;;;;;;7.78;1.75;;;;;;;;;;4660272;29;20056;-81
2021/10/14 12:58:21;;;;;;;8.00;1.63;;;;;;;;;;4579617;29;20101;-82
2021/10/14 13:04:21;;;;;;;7.70;2.30;;;;;;;;;;4604402;29;20047;-82
2021/10/14 13:07:13;;;;;;;7.40;1.80;;;;;;;;;;4629403;29;20040;-81
2021/10/14 13:09:51;;;;;;;9.80;2.13;;;;;;;;;;4614997;29;20112;-81
2021/10/14 13:12:29;;;;;;;6.25;1.40;;;;;;;;;;4616763;29;20082;-82
2021/10/14 13:15:10;;;;;;;8.30;1.80;;;;;;;;;;4590230;29;20764;-83
2021/10/14 13:17:39;;;;;;;8.00;1.80;;;;;;;;;;4622272;29;20143;-81
2021/10/14 13:20:28;;;;;;;7.63;1.90;;;;;;;;;;4632105;29;20211;-82
2021/10/14 13:31:50;;;;;;;8.80;1.77;;;;;;;;;;4635382;29;20818;-81
2021/10/14 13:34:54;;;;;;;;;;;;;;;;;;;;;
2021/10/14 13:49:30;;;;;;;10.27;2.30;;;;;;;;;;4605115;29;21265;-83
2021/10/14 13:52:00;;;;;;;9.20;2.40;;;;;;;;;;4608474;29;20059;-81
2021/10/14 13:54:31;;;;;;;9.98;2.35;;;;;;;;;;4611575;29;20049;-81
2021/10/14 13:57:31;;;;;;;12.63;2.53;;;;;;;;;;4574524;30;20172;-81
2021/10/14 14:00:00;;;;;;;9.07;2.10;;;;;;;;;;4576148;30;22360;-83
2021/10/14 14:02:30;;;;;;;10.18;2.58;;;;;;;;;;4572278;30;20059;-81
2021/10/14 14:04:58;;;;;;;10.32;2.75;;;;;;;;;;4579670;30;20650;-82
2021/10/14 14:07:33;;;;;;;11.52;2.53;;;;;;;;;;4563636;30;21001;-83
2021/10/14 14:10:10;;;;;;;11.23;2.70;;;;;;;;;;4562682;30;20404;-82
2021/10/14 14:12:40;;;;;;;8.98;2.83;;;;;;;;;;4573188;30;21222;-81
2021/10/14 14:15:42;;;;;;;10.50;3.15;;;;;;;;;;4557100;30;21622;-82
2021/10/14 14:18:23;;;;;;;;;;;;;;;;;;;;;
2021/10/14 14:21:28;;;;;;;12.32;3.08;;;;;;;;;;4536404;30;20633;-83
2021/10/14 14:24:08;;;;;;;;;;;;;;;;;;;;;
2021/10/14 14:30:02;;;;;;;9.07;2.10;;;;;;;;;;4508304;30;21163;-81
2021/10/14 14:32:36;;;;;;;10.05;2.50;;;;;;;;;;4523760;30;20747;-83
2021/10/14 14:35:14;;;;;;;11.82;3.80;;;;;;;;;;4572735;30;20052;-83
2021/10/14 14:40:59;;;;;;;8.32;2.30;;;;;;;;;;4554646;30;20923;-83
2021/10/14 14:43:30;;;;;;;9.85;2.45;;;;;;;;;;4558551;29;20040;-81
2021/10/14 14:49:44;;;;;;;7.97;1.80;;;;;;;;;;4543759;30;20133;-83
2021/10/14 14:52:34;;;;;;;8.90;1.90;;;;;;;;;;4546869;30;21626;-82
2021/10/14 14:55:12;;;;;;;9.00;1.83;;;;;;;;;;4513602;30;20720;-83
2021/10/14 14:57:44;;;;;;;9.77;2.30;;;;;;;;;;4538590;30;20660;-81
2021/10/14 15:00:12;;;;;;;9.98;2.20;;;;;;;;;;4554928;30;21043;-82
2021/10/14 15:03:09;;;;;;;11.05;2.72;;;;;;;;;;4552985;30;20232;-82
2021/10/14 15:06:23;;;;;;;7.72;2.50;;;;;;;;;;4544115;30;22114;-82
2021/10/14 15:08:52;;;;;;;10.80;2.40;;;;;;;;;;4551605;30;23108;-81
2021/10/14 15:14:49;;;;;;;10.13;2.20;;;;;;;;;;4533990;30;20813;-82
2021/10/14 15:26:52;;;;;;;;;;;;;;;;;;;;;
2021/10/14 15:29:54;;;;;;;;;;;;;;;;;;;;;
2021/10/14 15:39:16;;;;;;;10.68;2.20;;;;;;;;;;4548362;30;20769;-84
2021/10/14 15:41:49;;;;;;;9.38;2.17;;;;;;;;;;4542544;30;20183;-83
2021/10/14 15:51:10;;;;;;;10.35;2.38;;;;;;;;;;4542649;29;21609;-82
2021/10/14 16:02:36;;;;;;;10.98;2.63;;;;;;;;;;4597982;29;20135;-84
2021/10/14 16:05:49;;;;;;;11.13;2.55;;;;;;;;;;4589287;29;21938;-81
2021/10/14 16:12:08;;;;;;;10.63;2.60;;;;;;;;;;4649688;29;20050;-82
2021/10/14 16:14:55;;;;;;;12.38;2.30;;;;;;;;;;4601222;29;20128;-82
2021/10/14 16:17:33;;;;;;;9.60;2.22;;;;;;;;;;4602148;29;20888;-83
2021/10/14 16:20:26;;;;;;;9.70;3.05;;;;;;;;;;4601686;29;20054;-81
2021/10/14 16:26:19;;;;;;;9.00;2.38;;;;;;;;;;4571687;30;20043;-82
2021/10/14 16:29:07;;;;;;;15.65;5.70;;;;;;;;;;4588949;30;20138;-83
2021/10/14 16:31:53;;;;;;;;;;;;;;;;;;;;;
2021/10/14 16:34:48;;;;;;;9.50;2.35;;;;;;;;;;4556472;29;20049;-83
2021/10/14 16:38:07;;;;;;;;;;;;;;;;;;;;;
2021/10/14 16:41:03;;;;;;;9.48;2.40;;;;;;;;;;4602346;29;20736;-83
2021/10/14 16:43:49;;;;;;;13.13;3.72;;;;;;;;;;4604100;29;20036;-82
2021/10/14 16:46:18;;;;;;;12.23;3.65;;;;;;;;;;4629180;29;20053;-82
2021/10/14 16:49:21;;;;;;;15.40;3.70;;;;;;;;;;4645879;29;20756;-84
2021/10/14 16:55:08;;;;;;;15.18;3.75;;;;;;;;;;4675285;29;20060;-81
2021/10/14 16:57:41;;;;;;;11.45;3.30;;;;;;;;;;4691537;29;20053;-82
2021/10/14 17:03:25;;;;;;;12.00;2.78;;;;;;;;;;4663513;29;20133;-81
2021/10/14 17:06:10;;;;;;;;;;;;;;;;;;;;;
2021/10/14 17:08:46;;;;;;;12.25;3.47;;;;;;;;;;4655336;29;20047;-81
2021/10/14 17:47:14;;;;;;;10.93;3.10;;;;;;;;;;4762188;29;20060;-82
2021/10/14 17:49:50;;;;;;;12.15;3.50;;;;;;;;;;4803879;29;20069;-82
2021/10/14 17:52:35;;;;;;;13.75;4.20;;;;;;;;;;4757368;29;20050;-82
2021/10/14 17:55:09;;;;;;;11.48;4.07;;;;;;;;;;4767291;29;20047;-82
2021/10/14 17:57:43;;;;;;;13.90;3.78;;;;;;;;;;4784453;29;20043;-82
2021/10/14 18:00:16;;;;;;;14.07;3.63;;;;;;;;;;4769866;29;20062;-82
2021/10/14 18:03:05;;;;;;;14.27;4.00;;;;;;;;;;4822337;29;20106;-82
2021/10/14 18:39:22;;;;;;;21.50;6.85;;;;;;;;;;4846002;29;20205;-83
2021/10/14 18:41:50;;;;;;;;;;;;;;;;;;4841926;29;20036;-82
2021/10/14 18:44:20;;;;;;;14.98;5.85;;;;;;;;;;4827415;29;20011;-83
2021/10/14 18:46:50;;;;;;;17.60;6.28;;;;;;;;;;4824711;29;20855;-82
2021/10/14 18:49:21;;;;;;;19.30;6.05;;;;;;;;;;4837400;29;20067;-82
2021/10/14 18:51:58;;;;;;;17.63;6.88;;;;;;;;;;4889399;29;20134;-83
2021/10/14 18:54:25;;;;;;;15.15;5.25;;;;;;;;;;4877166;29;22988;-82
2021/10/14 18:56:54;;;;;;;14.23;4.97;;;;;;;;;;4880043;29;20083;-82
2021/10/14 19:02:13;;;;;;;11.95;3.72;;;;;;;;;;4899250;28;20039;-81
2021/10/14 19:04:56;;;;;;;13.68;3.58;;;;;;;;;;4888684;28;20042;-84
2021/10/14 19:07:39;;;;;;;12.60;3.70;;;;;;;;;;4873976;29;20044;-82
2021/10/14 19:15:54;;;;;;;15.00;4.35;;;;;;;;;;4853264;29;20099;-82
2021/10/14 20:19:59;;;;;;;10.43;3.17;;;;;;;;;;4922969;29;20143;-83
2021/10/14 20:21:26;;;;;;;9.23;2.72;;;;;;;;;;4860786;29;20143;-83
2021/10/14 20:23:55;;;;;;;12.82;3.70;;;;;;;;;;4865092;29;20104;-84
2021/10/14 20:26:22;;;;;;;12.75;4.15;;;;;;;;;;4827175;29;20073;-84
2021/10/14 20:28:50;;;;;;;11.32;3.00;;;;;;;;;;4851286;29;20045;-84
2021/10/14 20:31:20;;;;;;;10.73;3.15;;;;;;;;;;4832180;29;20177;-83
2021/10/14 20:36:27;;;;;;;11.70;3.20;;;;;;;;;;4834480;29;22740;-83
2021/10/14 20:38:58;;;;;;;10.35;3.13;;;;;;;;;;4835881;29;20074;-84
2021/10/14 20:41:28;;;;;;;14.60;4.70;;;;;;;;;;4834715;29;20053;-92
2021/10/14 20:43:54;;;;;;;11.95;4.03;;;;;;;;;;4871729;29;20045;-92
2021/10/14 20:46:28;;;;;;;10.43;2.80;;;;;;;;;;4868459;29;20076;-93
2021/10/14 20:49:00;;;;;;;10.50;2.95;;;;;;;;;;4865501;29;20663;-93
2021/10/14 20:51:34;;;;;;;10.88;2.90;;;;;;;;;;4890760;29;20055;-92
2021/10/14 20:54:11;;;;;;;10.20;2.80;;;;;;;;;;4895817;29;20040;-93
2021/10/14 21:05:09;;;;;;;11.32;2.50;;;;;;;;;;4835569;29;20041;-93
2021/10/14 21:07:38;;;;;;;11.88;2.95;;;;;;;;;;4851506;29;20034;-94
2021/10/14 21:10:06;;;;;;;8.77;2.58;;;;;;;;;;4851896;29;21299;-94
2021/10/14 21:12:35;;;;;;;10.68;3.03;;;;;;;;;;4875857;29;20040;-94
2021/10/14 21:15:17;;;;;;;10.32;2.70;;;;;;;;;;4890930;29;20064;-94
2021/10/14 21:17:56;;;;;;;8.63;2.58;;;;;;;;;;4869178;29;20049;-93
2021/10/14 21:20:27;;;;;;;11.18;2.75;;;;;;;;;;4861002;29;20044;-94
2021/10/14 21:22:55;;;;;;;11.88;2.63;;;;;;;;;;4866046;29;21216;-94
2021/10/14 21:25:23;;;;;;;7.80;2.72;;;;;;;;;;4816354;29;20038;-94
2021/10/14 21:28:30;;;;;;;12.10;2.97;;;;;;;;;;4824049;29;20042;-94
2021/10/14 21:31:04;;;;;;;8.65;2.60;;;;;;;;;;4818762;29;20053;-94
2021/10/14 21:36:16;;;;;;;14.02;3.03;;;;;;;;;;4836677;29;20094;-94
2021/10/14 21:38:46;;;;;;;7.50;2.55;;;;;;;;;;4844841;29;20094;-93
2021/10/14 21:41:12;;;;;;;10.82;2.90;;;;;;;;;;4835863;29;20106;-94
2021/10/14 21:43:39;;;;;;;10.95;2.47;;;;;;;;;;4798618;29;20038;-94
2021/10/14 21:46:07;;;;;;;8.85;2.95;;;;;;;;;;4808040;29;20084;-92
2021/10/14 21:48:34;;;;;;;10.32;2.70;;;;;;;;;;4827316;29;20062;-94
2021/10/14 21:51:01;;;;;;;11.57;2.90;;;;;;;;;;4835483;29;20631;-94
2021/10/14 21:53:28;;;;;;;10.80;2.88;;;;;;;;;;4842421;29;20045;-94
2021/10/14 21:55:57;;;;;;;8.52;2.53;;;;;;;;;;4858164;29;20048;-94
2021/10/14 21:58:24;;;;;;;9.35;2.60;;;;;;;;;;4849056;29;20049;-93
2021/10/14 22:00:53;;;;;;;11.65;3.00;;;;;;;;;;4837594;29;20108;-93
2021/10/14 22:03:23;;;;;;;9.63;2.63;;;;;;;;;;4833810;29;20123;-93
2021/10/14 22:05:52;;;;;;;9.40;2.65;;;;;;;;;;4868995;29;20029;-94
2021/10/14 22:08:29;;;;;;;7.70;2.40;;;;;;;;;;4883347;29;20041;-94
2021/10/14 22:11:03;;;;;;;10.30;2.90;;;;;;;;;;4914778;29;20052;-94
2021/10/14 22:13:31;;;;;;;10.07;2.65;;;;;;;;;;4899542;29;20048;-94
2021/10/14 22:15:58;;;;;;;8.13;2.40;;;;;;;;;;4896048;23;20513;-88
2021/10/14 22:18:24;;;;;;;8.38;2.50;;;;;;;;;;4875322;29;20120;-88
2021/10/14 22:20:50;;;;;;;9.18;2.42;;;;;;;;;;4876204;29;20448;-86
2021/10/14 22:23:16;;;;;;;;;;;;;;;;;;4866341;29;20033;-86
2021/10/14 22:25:43;;;;;;;8.57;2.42;;;;;;;;;;4862087;29;19968;-87
2021/10/14 22:28:10;;;;;;;9.73;3.03;;;;;;;;;;4863880;29;20390;-85
2021/10/14 22:30:37;;;;;;;9.90;2.92;;;;;;;;;;4863907;29;20052;-86
2021/10/14 22:33:04;;;;;;;10.35;2.63;;;;;;;;;;4877938;29;20061;-87
2021/10/14 22:35:30;;;;;;;10.20;2.50;;;;;;;;;;4857143;29;20025;-86
2021/10/14 22:37:57;;;;;;;9.00;2.45;;;;;;;;;;4868945;29;20048;-86
2021/10/14 22:40:24;;;;;;;10.52;2.67;;;;;;;;;;4877742;29;20084;-85
2021/10/14 22:42:50;;;;;;;11.35;2.60;;;;;;;;;;4876519;29;20105;-86
2021/10/14 22:45:16;;;;;;;11.38;2.50;;;;;;;;;;4863361;29;20100;-86
2021/10/14 22:47:43;;;;;;;8.57;2.78;;;;;;;;;;4862589;29;20041;-86
2021/10/14 22:50:09;;;;;;;;;;;;;;;;;;4879803;29;20037;-87
2021/10/14 22:52:39;;;;;;;9.05;2.50;;;;;;;;;;4880140;29;19982;-86
2021/10/14 22:55:07;;;;;;;10.18;2.33;;;;;;;;;;4871440;29;20044;-86
2021/10/14 22:57:34;;;;;;;10.75;2.55;;;;;;;;;;4864549;29;21364;-86
2021/10/14 23:00:00;;;;;;;11.70;2.53;;;;;;;;;;4859906;29;20048;-85
2021/10/14 23:02:27;;;;;;;9.88;2.70;;;;;;;;;;4875833;29;20474;-84
2021/10/14 23:04:54;;;;;;;7.75;2.60;;;;;;;;;;4878527;29;20036;-86
2021/10/14 23:07:21;;;;;;;9.45;2.63;;;;;;;;;;4873874;29;20040;-86
2021/10/14 23:09:48;;;;;;;7.68;2.63;;;;;;;;;;4859317;29;20052;-86
2021/10/14 23:12:15;;;;;;;9.55;2.67;;;;;;;;;;4860510;29;20040;-86
2021/10/14 23:14:42;;;;;;;10.27;2.90;;;;;;;;;;4868837;29;20619;-87
2021/10/14 23:17:09;;;;;;;11.05;3.00;;;;;;;;;;4863339;29;20087;-86
2021/10/14 23:19:35;;;;;;;11.18;2.88;;;;;;;;;;4881651;29;20108;-86
2021/10/14 23:22:02;;;;;;;10.90;2.83;;;;;;;;;;4882477;29;20036;-85
2021/10/14 23:24:28;;;;;;;10.43;2.60;;;;;;;;;;4877660;29;20040;-85
2021/10/14 23:26:55;;;;;;;9.00;2.58;;;;;;;;;;4881080;29;20037;-84
2021/10/14 23:29:21;;;;;;;10.52;2.55;;;;;;;;;;4863066;29;20040;-84
2021/10/14 23:31:48;;;;;;;7.32;2.00;;;;;;;;;;4884643;29;20430;-84
2021/10/14 23:34:15;;;;;;;7.22;2.22;;;;;;;;;;4862886;29;20044;-84
2021/10/14 23:36:42;;;;;;;8.85;2.60;;;;;;;;;;4884817;29;20055;-84
2021/10/14 23:39:09;;;;;;;7.85;2.58;;;;;;;;;;4880243;29;20044;-85
2021/10/14 23:41:35;;;;;;;11.30;2.60;;;;;;;;;;4866426;29;20067;-85
2021/10/14 23:44:02;;;;;;;11.00;2.65;;;;;;;;;;4885208;29;20633;-86
2021/10/14 23:46:28;;;;;;;9.50;2.70;;;;;;;;;;4869614;29;20709;-86